Time;durP1;ratioP1;P1;durP2;ratioP2;P2;SDS_P1;SDS_P2;PMS_P1;PMS_P2;Temp;Humidity;BMP_temperature;BMP_pressure;BME280_temperature;BME280_humidity;BME280_pressure;Samples;Min_cycle;Max_cycle;Signal;HPM_P1;HPM_P2
2022/10/03 00:01:16;;;;;;;16.55;9.65;;;;;;;;;;7391003;19;20041;-72
2022/10/03 00:04:25;;;;;;;18.17;9.13;;;;;;;;;;7393515;19;20084;-73
2022/10/03 00:07:01;;;;;;;19.42;9.50;;;;;;;;;;7392692;19;20063;-71
2022/10/03 00:09:48;;;;;;;23.77;9.73;;;;;;;;;;7392909;19;20041;-72
2022/10/03 00:12:41;;;;;;;18.98;9.88;;;;;;;;;;7392034;19;20002;-72
2022/10/03 00:15:25;;;;;;;17.85;9.45;;;;;;;;;;7392454;19;20009;-71
2022/10/03 00:18:13;;;;;;;20.95;9.05;;;;;;;;;;7392637;19;20011;-71
2022/10/03 00:21:01;;;;;;;18.65;9.80;;;;;;;;;;7391419;19;20006;-72
2022/10/03 00:23:34;;;;;;;18.98;9.50;;;;;;;;;;7392527;19;20089;-71
2022/10/03 00:26:31;;;;;;;20.08;9.40;;;;;;;;;;7390993;19;20007;-72
2022/10/03 00:29:24;;;;;;;20.40;9.70;;;;;;;;;;7392265;19;20028;-71
2022/10/03 00:31:59;;;;;;;20.45;9.55;;;;;;;;;;7387506;19;20007;-73
2022/10/03 00:34:30;;;;;;;19.67;10.30;;;;;;;;;;7392129;19;20013;-71
2022/10/03 00:37:34;;;;;;;16.52;8.77;;;;;;;;;;7392358;19;20006;-72
2022/10/03 00:40:18;;;;;;;17.50;9.95;;;;;;;;;;7387213;19;20733;-72
2022/10/03 00:43:11;;;;;;;17.65;10.15;;;;;;;;;;7387466;19;20567;-72
2022/10/03 00:46:15;;;;;;;28.35;10.20;;;;;;;;;;7390645;19;19998;-71
2022/10/03 00:49:01;;;;;;;20.83;11.07;;;;;;;;;;7391788;19;19999;-72
2022/10/03 00:51:52;;;;;;;21.30;11.00;;;;;;;;;;7389666;19;19999;-70
2022/10/03 00:54:39;;;;;;;20.33;9.50;;;;;;;;;;7391830;19;20745;-72
2022/10/03 00:57:32;;;;;;;25.48;10.10;;;;;;;;;;7391783;19;20003;-71
2022/10/03 01:00:12;;;;;;;16.13;8.93;;;;;;;;;;7390746;19;20062;-71
2022/10/03 01:03:02;;;;;;;20.08;9.82;;;;;;;;;;7395785;19;19999;-71
2022/10/03 01:05:49;;;;;;;24.55;10.50;;;;;;;;;;7391511;19;20020;-72
2022/10/03 01:08:29;;;;;;;18.95;9.75;;;;;;;;;;7391787;19;20476;-71
2022/10/03 01:11:29;;;;;;;18.55;9.68;;;;;;;;;;7389068;19;20003;-72
2022/10/03 01:14:25;;;;;;;18.80;9.27;;;;;;;;;;7392650;19;19991;-70
2022/10/03 01:17:12;;;;;;;28.75;9.60;;;;;;;;;;7390070;19;20006;-72
2022/10/03 01:20:02;;;;;;;23.27;10.57;;;;;;;;;;7389672;19;20011;-70
2022/10/03 01:23:06;;;;;;;20.70;9.50;;;;;;;;;;7388743;19;20480;-71
2022/10/03 01:25:39;;;;;;;20.20;9.63;;;;;;;;;;7387251;19;20003;-72
2022/10/03 01:31:24;;;;;;;29.42;9.88;;;;;;;;;;7388562;19;20023;-71
2022/10/03 01:34:03;;;;;;;27.40;10.45;;;;;;;;;;7389097;19;20026;-72
2022/10/03 01:36:38;;;;;;;22.70;9.40;;;;;;;;;;7389071;19;19994;-71
2022/10/03 01:39:25;;;;;;;22.35;10.10;;;;;;;;;;7390666;19;20002;-71
2022/10/03 01:42:07;;;;;;;22.15;9.50;;;;;;;;;;7388322;19;20037;-70
2022/10/03 01:45:12;;;;;;;23.83;10.15;;;;;;;;;;7391711;19;20062;-71
2022/10/03 01:48:03;;;;;;;24.33;9.95;;;;;;;;;;7386257;19;19995;-71
2022/10/03 01:50:35;;;;;;;31.70;11.00;;;;;;;;;;7389470;19;20009;-70
2022/10/03 01:53:18;;;;;;;19.58;10.13;;;;;;;;;;7388388;19;19998;-72
2022/10/03 01:55:55;;;;;;;19.17;10.32;;;;;;;;;;7389808;19;20333;-72
2022/10/03 01:58:26;;;;;;;23.95;10.70;;;;;;;;;;7389542;19;20019;-71
2022/10/03 02:01:26;;;;;;;24.90;10.70;;;;;;;;;;7388226;19;20019;-71
2022/10/03 02:04:20;;;;;;;23.43;10.10;;;;;;;;;;7389654;19;20477;-71
2022/10/03 02:07:04;;;;;;;26.42;10.75;;;;;;;;;;7389275;19;20003;-72
2022/10/03 02:09:48;;;;;;;28.13;10.50;;;;;;;;;;7389446;19;20003;-71
2022/10/03 02:12:26;;;;;;;25.60;9.85;;;;;;;;;;7386240;19;20033;-71
2022/10/03 02:15:34;;;;;;;26.13;10.73;;;;;;;;;;7388821;19;20069;-70
2022/10/03 02:18:20;;;;;;;19.38;9.48;;;;;;;;;;7384711;19;20115;-72
2022/10/03 02:21:12;;;;;;;18.02;10.20;;;;;;;;;;7387664;19;20010;-72
2022/10/03 02:23:42;;;;;;;20.63;10.32;;;;;;;;;;7388107;19;19998;-71
2022/10/03 02:26:27;;;;;;;22.55;10.85;;;;;;;;;;7388338;19;20019;-71
2022/10/03 02:29:09;;;;;;;19.20;9.95;;;;;;;;;;7388499;19;20007;-70
2022/10/03 02:32:00;;;;;;;21.98;10.40;;;;;;;;;;7386469;19;20009;-70
2022/10/03 02:34:57;;;;;;;26.67;10.57;;;;;;;;;;7386943;19;20043;-72
2022/10/03 02:37:41;;;;;;;21.77;9.90;;;;;;;;;;7388057;19;20007;-70
2022/10/03 02:40:22;;;;;;;18.95;10.15;;;;;;;;;;7387682;19;20080;-71
2022/10/03 02:43:06;;;;;;;24.60;10.65;;;;;;;;;;7387964;19;20013;-71
2022/10/03 02:46:05;;;;;;;16.48;9.70;;;;;;;;;;7388226;19;20006;-73
2022/10/03 02:48:49;;;;;;;20.17;9.65;;;;;;;;;;7386272;19;20013;-71
2022/10/03 02:51:52;;;;;;;22.58;10.82;;;;;;;;;;7390048;19;20003;-72
2022/10/03 02:54:32;;;;;;;23.38;9.48;;;;;;;;;;7391672;19;20062;-71
2022/10/03 02:57:19;;;;;;;25.45;10.20;;;;;;;;;;7388834;19;20002;-71
2022/10/03 03:00:22;;;;;;;26.33;11.55;;;;;;;;;;7387757;19;20678;-71
2022/10/03 03:02:57;;;;;;;23.52;10.10;;;;;;;;;;7387525;19;20003;-72
2022/10/03 03:05:41;;;;;;;23.15;10.13;;;;;;;;;;7387890;19;20007;-70
2022/10/03 03:08:23;;;;;;;24.10;10.27;;;;;;;;;;7387802;19;20038;-70
2022/10/03 03:11:24;;;;;;;19.75;9.70;;;;;;;;;;7386721;19;20023;-70
2022/10/03 03:14:01;;;;;;;23.17;9.97;;;;;;;;;;7386349;19;20034;-72
2022/10/03 03:16:52;;;;;;;21.33;10.10;;;;;;;;;;7386133;19;20283;-72
2022/10/03 03:19:26;;;;;;;23.05;9.63;;;;;;;;;;7387810;19;20017;-72
2022/10/03 03:22:09;;;;;;;24.85;10.40;;;;;;;;;;7385151;19;20007;-72
2022/10/03 03:24:40;;;;;;;23.52;10.40;;;;;;;;;;7386128;19;19995;-70
2022/10/03 03:27:17;;;;;;;23.63;10.32;;;;;;;;;;7387162;19;20007;-71
2022/10/03 03:29:55;;;;;;;24.25;10.48;;;;;;;;;;7387009;19;20002;-71
2022/10/03 03:32:46;;;;;;;27.85;10.35;;;;;;;;;;7386849;19;20002;-72
2022/10/03 03:35:11;;;;;;;19.17;9.77;;;;;;;;;;7386989;19;20010;-72
2022/10/03 03:37:43;;;;;;;25.33;9.68;;;;;;;;;;7386666;19;19995;-72
2022/10/03 03:40:26;;;;;;;;;;;;;;;;;;7386795;19;20569;-70
2022/10/03 03:42:59;;;;;;;24.13;10.35;;;;;;;;;;7386499;19;19922;-71
2022/10/03 03:45:38;;;;;;;22.92;10.48;;;;;;;;;;7384866;19;20062;-71
2022/10/03 03:48:21;;;;;;;25.55;9.77;;;;;;;;;;7386998;19;19998;-70
2022/10/03 03:51:15;;;;;;;28.15;11.13;;;;;;;;;;7383972;19;20083;-71
2022/10/03 03:54:01;;;;;;;24.23;10.23;;;;;;;;;;7385314;19;20002;-72
2022/10/03 03:56:51;;;;;;;19.58;9.70;;;;;;;;;;7386306;19;20014;-72
2022/10/03 03:59:19;;;;;;;29.20;10.93;;;;;;;;;;7391954;19;20712;-70
2022/10/03 04:02:09;;;;;;;23.98;10.43;;;;;;;;;;7389491;19;20023;-69
2022/10/03 04:04:54;;;;;;;26.27;10.82;;;;;;;;;;7387125;19;20461;-70
2022/10/03 04:07:50;;;;;;;23.95;10.65;;;;;;;;;;7386069;19;20010;-72
2022/10/03 04:10:31;;;;;;;26.55;10.85;;;;;;;;;;7385291;19;20002;-71
2022/10/03 04:13:21;;;;;;;29.73;11.70;;;;;;;;;;7382500;19;20010;-71
2022/10/03 04:15:59;;;;;;;25.03;11.67;;;;;;;;;;7385480;19;20893;-69
2022/10/03 04:18:57;;;;;;;27.52;12.10;;;;;;;;;;7385906;19;20385;-70
2022/10/03 04:21:43;;;;;;;24.48;12.15;;;;;;;;;;7382476;19;20007;-71
2022/10/03 04:24:30;;;;;;;28.50;10.93;;;;;;;;;;7383185;19;20448;-71
2022/10/03 04:27:16;;;;;;;21.48;10.38;;;;;;;;;;7385233;19;20567;-71
2022/10/03 04:30:06;;;;;;;25.27;11.38;;;;;;;;;;7385086;19;20035;-70
2022/10/03 04:33:02;;;;;;;25.25;11.60;;;;;;;;;;7384173;19;20027;-72
2022/10/03 04:35:56;;;;;;;28.20;12.10;;;;;;;;;;7390350;19;20069;-71
2022/10/03 04:38:43;;;;;;;28.58;10.27;;;;;;;;;;7390192;19;20020;-71
2022/10/03 04:41:37;;;;;;;33.17;11.02;;;;;;;;;;7387914;19;20118;-72
2022/10/03 04:44:33;;;;;;;29.92;11.20;;;;;;;;;;7390229;19;20002;-72
2022/10/03 04:47:10;;;;;;;22.38;10.88;;;;;;;;;;7391481;19;20003;-72
2022/10/03 04:49:55;;;;;;;31.75;11.80;;;;;;;;;;7391772;19;20003;-72
2022/10/03 04:52:57;;;;;;;28.85;10.75;;;;;;;;;;7389567;19;20006;-72
2022/10/03 04:55:34;;;;;;;21.42;10.02;;;;;;;;;;7393578;19;19999;-72
2022/10/03 04:58:21;;;;;;;31.15;11.25;;;;;;;;;;7390092;19;20007;-71
2022/10/03 05:00:58;;;;;;;22.50;10.63;;;;;;;;;;7388289;19;20006;-72
2022/10/03 05:03:25;;;;;;;26.75;12.00;;;;;;;;;;7390559;19;20020;-72
2022/10/03 05:05:58;;;;;;;21.80;10.90;;;;;;;;;;7392694;19;20002;-71
2022/10/03 05:08:33;;;;;;;28.60;11.52;;;;;;;;;;7391037;19;20027;-71
2022/10/03 05:11:12;;;;;;;29.73;12.90;;;;;;;;;;7387614;19;20405;-72
2022/10/03 05:13:38;;;;;;;28.75;11.43;;;;;;;;;;7389043;19;20370;-71
2022/10/03 05:16:27;;;;;;;21.75;10.82;;;;;;;;;;7390724;19;19998;-72
2022/10/03 05:19:32;;;;;;;23.10;10.77;;;;;;;;;;7391768;19;20009;-73
2022/10/03 05:22:22;;;;;;;29.67;12.18;;;;;;;;;;7387202;19;20491;-72
2022/10/03 05:24:50;;;;;;;23.63;11.65;;;;;;;;;;7394870;19;20012;-71
2022/10/03 05:27:23;;;;;;;25.45;10.85;;;;;;;;;;7391664;19;19999;-70
2022/10/03 05:30:09;;;;;;;24.35;10.88;;;;;;;;;;7394028;19;20007;-71
2022/10/03 05:32:59;;;;;;;21.20;9.93;;;;;;;;;;7391360;19;20003;-72
2022/10/03 05:35:48;;;;;;;21.35;9.30;;;;;;;;;;7393695;19;20070;-71
2022/10/03 05:38:48;;;;;;;21.30;9.93;;;;;;;;;;7389456;19;20395;-72
2022/10/03 05:41:26;;;;;;;23.60;9.45;;;;;;;;;;7386665;19;20478;-71
2022/10/03 05:44:07;;;;;;;21.83;10.18;;;;;;;;;;7391066;19;20469;-70
2022/10/03 05:47:04;;;;;;;22.77;10.02;;;;;;;;;;7387120;19;20007;-70
2022/10/03 05:49:52;;;;;;;24.95;10.40;;;;;;;;;;7389225;19;20006;-72
2022/10/03 05:52:37;;;;;;;22.00;9.82;;;;;;;;;;7384914;19;20039;-71
2022/10/03 05:55:33;;;;;;;21.80;10.30;;;;;;;;;;7387021;19;20009;-70
2022/10/03 05:58:40;;;;;;;24.30;10.48;;;;;;;;;;7388004;19;19998;-72
2022/10/03 06:01:52;;;;;;;23.63;10.35;;;;;;;;;;7384600;19;20007;-72
2022/10/03 06:04:29;;;;;;;21.15;10.00;;;;;;;;;;7387245;19;20007;-70
2022/10/03 06:07:09;;;;;;;26.88;9.93;;;;;;;;;;7387962;19;19998;-72
2022/10/03 06:10:01;;;;;;;24.77;10.50;;;;;;;;;;7387014;19;20011;-72
2022/10/03 06:12:32;;;;;;;23.08;10.02;;;;;;;;;;7386973;19;20034;-72
2022/10/03 06:15:19;;;;;;;22.20;9.57;;;;;;;;;;7388435;19;20091;-72
2022/10/03 06:18:10;;;;;;;21.00;9.75;;;;;;;;;;7387972;19;20010;-72
2022/10/03 06:21:02;;;;;;;28.10;9.60;;;;;;;;;;7389891;19;20377;-72
2022/10/03 06:24:04;;;;;;;20.73;9.30;;;;;;;;;;7390418;19;20035;-70
2022/10/03 06:26:56;;;;;;;21.70;9.27;;;;;;;;;;7387726;19;20366;-72
2022/10/03 06:29:53;;;;;;;27.73;9.25;;;;;;;;;;7387213;19;19998;-71
2022/10/03 06:32:31;;;;;;;20.35;9.68;;;;;;;;;;7388953;19;20017;-72
2022/10/03 06:35:31;;;;;;;26.30;10.88;;;;;;;;;;7391664;19;19998;-71
2022/10/03 06:38:27;;;;;;;22.58;9.60;;;;;;;;;;7388115;19;19998;-71
2022/10/03 06:41:27;;;;;;;22.05;10.32;;;;;;;;;;7387439;19;20002;-72
2022/10/03 06:44:22;;;;;;;24.77;9.82;;;;;;;;;;7386824;19;19994;-72
2022/10/03 06:47:08;;;;;;;20.98;10.07;;;;;;;;;;7387801;19;19994;-72
2022/10/03 06:50:04;;;;;;;17.98;9.65;;;;;;;;;;7386944;19;20014;-70
2022/10/03 06:52:40;;;;;;;21.63;9.93;;;;;;;;;;7388627;19;20026;-72
2022/10/03 06:55:33;;;;;;;22.85;11.13;;;;;;;;;;7387020;19;20023;-72
2022/10/03 06:57:59;;;;;;;27.50;12.63;;;;;;;;;;7386037;19;20001;-71
2022/10/03 07:00:58;;;;;;;28.38;15.43;;;;;;;;;;7385885;19;20067;-72
2022/10/03 07:03:34;;;;;;;30.30;16.92;;;;;;;;;;7386091;19;20479;-72
2022/10/03 07:06:00;;;;;;;27.67;17.73;;;;;;;;;;7388720;19;20554;-72
2022/10/03 07:08:33;;;;;;;31.05;15.73;;;;;;;;;;7386564;19;20003;-73
2022/10/03 07:11:42;;;;;;;26.70;11.35;;;;;;;;;;7384815;19;19999;-71
2022/10/03 07:14:15;;;;;;;21.60;10.60;;;;;;;;;;7384790;19;19998;-71
2022/10/03 07:17:07;;;;;;;20.77;9.88;;;;;;;;;;7386689;19;19998;-72
2022/10/03 07:19:56;;;;;;;22.17;8.68;;;;;;;;;;7387223;19;20282;-72
2022/10/03 07:22:57;;;;;;;19.13;8.65;;;;;;;;;;7384733;19;20488;-72
2022/10/03 07:25:59;;;;;;;22.77;9.05;;;;;;;;;;7384742;19;19999;-72
2022/10/03 07:28:44;;;;;;;12.90;7.78;;;;;;;;;;7384305;19;20341;-71
2022/10/03 07:31:39;;;;;;;18.52;7.20;;;;;;;;;;7382884;19;20009;-72
2022/10/03 07:34:49;;;;;;;17.80;7.03;;;;;;;;;;7384667;19;20733;-74
2022/10/03 07:40:20;;;;;;;13.00;7.43;;;;;;;;;;7385545;19;20010;-70
2022/10/03 07:42:55;;;;;;;16.08;7.38;;;;;;;;;;7383820;19;20353;-71
2022/10/03 07:45:39;;;;;;;20.60;7.50;;;;;;;;;;7385043;19;20409;-71
2022/10/03 07:48:35;;;;;;;12.80;6.30;;;;;;;;;;7385002;19;20330;-73
2022/10/03 07:51:36;;;;;;;14.60;6.82;;;;;;;;;;7382887;19;19991;-71
2022/10/03 07:54:39;;;;;;;13.00;5.95;;;;;;;;;;7383201;19;20054;-71
2022/10/03 07:57:34;;;;;;;12.40;5.75;;;;;;;;;;7384483;19;20003;-73
2022/10/03 08:00:21;;;;;;;14.27;5.70;;;;;;;;;;7383958;19;19998;-71
2022/10/03 08:03:06;;;;;;;17.63;5.90;;;;;;;;;;7383310;19;20002;-72
2022/10/03 08:05:49;;;;;;;8.95;4.63;;;;;;;;;;7384806;19;19994;-71
2022/10/03 08:08:39;;;;;;;9.82;4.72;;;;;;;;;;7383504;19;20002;-70
2022/10/03 08:11:26;;;;;;;10.43;4.80;;;;;;;;;;7393458;19;19994;-71
2022/10/03 08:14:16;;;;;;;16.13;5.53;;;;;;;;;;7391138;19;20007;-71
2022/10/03 08:17:09;;;;;;;15.77;4.80;;;;;;;;;;7393824;19;20009;-71
2022/10/03 08:20:11;;;;;;;11.70;4.68;;;;;;;;;;7396034;19;20062;-72
2022/10/03 08:22:57;;;;;;;8.77;4.38;;;;;;;;;;7394124;19;19999;-71
2022/10/03 08:25:39;;;;;;;13.40;5.32;;;;;;;;;;7393590;19;19995;-71
2022/10/03 08:28:07;;;;;;;12.50;4.57;;;;;;;;;;7391657;19;20058;-70
2022/10/03 08:31:10;;;;;;;7.43;4.28;;;;;;;;;;7390236;19;20003;-72
2022/10/03 08:33:38;;;;;;;14.60;4.93;;;;;;;;;;7386988;19;20006;-70
2022/10/03 08:36:10;;;;;;;12.88;4.35;;;;;;;;;;7386546;19;20555;-71
2022/10/03 08:38:49;;;;;;;8.27;3.65;;;;;;;;;;7389609;19;19999;-71
2022/10/03 08:41:51;;;;;;;10.18;3.92;;;;;;;;;;7383768;19;19995;-71
2022/10/03 08:44:43;;;;;;;10.98;4.30;;;;;;;;;;7389177;19;19998;-70
2022/10/03 08:47:36;;;;;;;10.65;4.18;;;;;;;;;;7388532;19;20016;-72
2022/10/03 08:50:20;;;;;;;14.18;4.20;;;;;;;;;;7386787;19;20359;-72
2022/10/03 08:52:54;;;;;;;11.57;4.25;;;;;;;;;;7387695;19;20061;-70
2022/10/03 08:55:32;;;;;;;13.00;4.18;;;;;;;;;;7390417;19;20554;-72
2022/10/03 08:58:03;;;;;;;9.90;4.15;;;;;;;;;;7390649;19;20017;-71
2022/10/03 09:01:06;;;;;;;12.13;4.30;;;;;;;;;;7389432;19;19998;-72
2022/10/03 09:04:10;;;;;;;12.90;4.22;;;;;;;;;;7390387;19;19998;-72
2022/10/03 09:06:47;;;;;;;10.02;4.28;;;;;;;;;;7390704;19;20062;-71
2022/10/03 09:09:27;;;;;;;11.25;4.85;;;;;;;;;;7393272;19;20718;-72
2022/10/03 09:12:12;;;;;;;10.05;3.92;;;;;;;;;;7386766;19;20002;-71
2022/10/03 09:15:04;;;;;;;10.18;4.03;;;;;;;;;;7390253;19;19994;-72
2022/10/03 09:18:07;;;;;;;23.75;10.48;;;;;;;;;;7390109;19;19995;-72
2022/10/03 09:21:06;;;;;;;13.27;5.05;;;;;;;;;;7387141;19;19998;-71
2022/10/03 09:23:51;;;;;;;9.70;3.97;;;;;;;;;;7390216;19;20025;-72
2022/10/03 09:26:53;;;;;;;12.32;4.40;;;;;;;;;;7390054;19;19999;-71
2022/10/03 09:29:38;;;;;;;8.85;3.83;;;;;;;;;;7389805;19;20002;-71
2022/10/03 09:32:47;;;;;;;11.52;4.55;;;;;;;;;;7388401;19;19998;-72
2022/10/03 09:35:41;;;;;;;16.67;4.40;;;;;;;;;;7385608;19;19998;-71
2022/10/03 09:38:36;;;;;;;11.10;4.10;;;;;;;;;;7389063;19;20461;-72
2022/10/03 09:41:10;;;;;;;7.60;3.63;;;;;;;;;;7386439;19;19998;-71
2022/10/03 09:43:47;;;;;;;12.73;3.88;;;;;;;;;;7389192;19;20390;-72
2022/10/03 09:47:21;;;;;;;7.57;3.80;;;;;;;;;;7388643;19;20070;-70
2022/10/03 09:49:59;;;;;;;12.98;4.55;;;;;;;;;;7388664;19;20032;-71
2022/10/03 09:52:37;;;;;;;7.97;3.40;;;;;;;;;;7387457;19;20092;-72
2022/10/03 09:55:28;;;;;;;10.23;3.75;;;;;;;;;;7388852;19;20002;-71
2022/10/03 09:58:24;;;;;;;15.40;3.85;;;;;;;;;;7388866;19;20005;-71
2022/10/03 10:01:09;;;;;;;6.90;3.42;;;;;;;;;;7387463;19;20002;-70
2022/10/03 10:04:05;;;;;;;11.88;3.45;;;;;;;;;;7388456;19;20007;-71
2022/10/03 10:06:45;;;;;;;11.40;3.55;;;;;;;;;;7387917;19;20015;-73
2022/10/03 10:09:57;;;;;;;8.40;2.83;;;;;;;;;;7390519;19;20479;-70
2022/10/03 10:12:25;;;;;;;5.53;2.75;;;;;;;;;;7383682;19;20445;-73
2022/10/03 10:15:02;;;;;;;8.77;3.15;;;;;;;;;;7387900;19;20002;-72
2022/10/03 10:17:46;;;;;;;7.97;3.20;;;;;;;;;;7387746;19;20007;-72
2022/10/03 10:20:33;;;;;;;9.00;2.70;;;;;;;;;;7387273;19;20002;-72
2022/10/03 10:23:09;;;;;;;8.10;2.85;;;;;;;;;;7387070;19;20034;-71
2022/10/03 10:25:53;;;;;;;9.40;2.72;;;;;;;;;;7386634;19;20088;-71
2022/10/03 10:28:53;;;;;;;8.35;3.47;;;;;;;;;;7387404;19;20002;-72
2022/10/03 10:31:34;;;;;;;8.13;2.95;;;;;;;;;;7382562;19;20024;-72
2022/10/03 10:34:21;;;;;;;6.45;3.40;;;;;;;;;;7386373;19;20354;-71
2022/10/03 10:37:20;;;;;;;7.90;2.97;;;;;;;;;;7387167;19;20010;-71
2022/10/03 10:40:23;;;;;;;10.73;3.70;;;;;;;;;;7387307;19;20484;-71
2022/10/03 10:43:23;;;;;;;8.00;3.55;;;;;;;;;;7385750;19;20022;-71
2022/10/03 10:46:15;;;;;;;11.00;3.50;;;;;;;;;;7387191;19;20006;-72
2022/10/03 10:49:05;;;;;;;8.68;3.67;;;;;;;;;;7388394;19;20007;-71
2022/10/03 10:51:33;;;;;;;8.07;3.72;;;;;;;;;;7384016;19;20006;-71
2022/10/03 10:54:07;;;;;;;10.70;3.40;;;;;;;;;;7385680;19;19998;-72
2022/10/03 10:57:00;;;;;;;9.52;3.00;;;;;;;;;;7386730;19;20022;-71
2022/10/03 11:00:04;;;;;;;7.40;3.60;;;;;;;;;;7386164;19;20003;-72
2022/10/03 11:03:22;;;;;;;10.55;3.47;;;;;;;;;;7385358;19;20409;-72
2022/10/03 11:06:18;;;;;;;7.63;3.20;;;;;;;;;;7386374;19;19994;-70
2022/10/03 11:09:05;;;;;;;8.00;3.17;;;;;;;;;;7386495;19;20428;-70
2022/10/03 11:12:08;;;;;;;9.18;3.13;;;;;;;;;;7383640;19;20467;-70
2022/10/03 11:15:07;;;;;;;7.03;3.20;;;;;;;;;;7384819;19;19994;-70
2022/10/03 11:18:08;;;;;;;8.10;3.97;;;;;;;;;;7386180;19;19999;-70
2022/10/03 11:20:46;;;;;;;;;;;;;;;;;;7384891;19;20362;-71
2022/10/03 11:23:43;;;;;;;7.78;3.40;;;;;;;;;;7384833;19;19922;-71
2022/10/03 11:26:51;;;;;;;7.68;3.30;;;;;;;;;;7385966;19;20528;-70
2022/10/03 11:29:54;;;;;;;8.82;3.53;;;;;;;;;;7384587;19;20118;-71
2022/10/03 11:32:38;;;;;;;9.20;3.92;;;;;;;;;;7384360;19;20476;-71
2022/10/03 11:35:48;;;;;;;9.38;3.55;;;;;;;;;;7386088;19;20029;-71
2022/10/03 11:38:28;;;;;;;7.47;3.67;;;;;;;;;;7385973;19;20058;-70
2022/10/03 11:41:37;;;;;;;9.60;3.50;;;;;;;;;;7385147;19;20007;-70
2022/10/03 11:44:03;;;;;;;5.55;2.70;;;;;;;;;;7382740;19;20055;-71
2022/10/03 11:46:35;;;;;;;6.50;2.75;;;;;;;;;;7389261;19;20090;-70
2022/10/03 11:49:00;;;;;;;10.02;2.70;;;;;;;;;;7391405;19;20010;-70
2022/10/03 11:51:55;;;;;;;9.02;3.08;;;;;;;;;;7388944;19;20504;-71
2022/10/03 11:54:27;;;;;;;10.13;2.70;;;;;;;;;;7389661;19;20086;-70
2022/10/03 11:57:05;;;;;;;8.90;3.38;;;;;;;;;;7391795;19;20465;-71
2022/10/03 11:59:52;;;;;;;6.20;2.80;;;;;;;;;;7391805;19;20327;-71
2022/10/03 12:02:44;;;;;;;5.55;2.47;;;;;;;;;;7390371;19;19999;-71
2022/10/03 12:05:21;;;;;;;8.25;3.25;;;;;;;;;;7393271;19;19998;-70
2022/10/03 12:11:01;;;;;;;7.93;3.13;;;;;;;;;;7389936;19;20006;-72
2022/10/03 12:14:02;;;;;;;10.13;3.38;;;;;;;;;;7389013;19;19994;-71
2022/10/03 12:16:46;;;;;;;6.93;3.08;;;;;;;;;;7389023;19;20472;-71
2022/10/03 12:19:57;;;;;;;10.35;3.55;;;;;;;;;;7390632;19;20009;-73
2022/10/03 12:22:47;;;;;;;9.88;3.75;;;;;;;;;;7387946;19;20302;-71
2022/10/03 12:25:18;;;;;;;6.00;3.20;;;;;;;;;;7393640;19;20092;-70
2022/10/03 12:28:11;;;;;;;8.70;3.53;;;;;;;;;;7392466;19;19999;-70
2022/10/03 12:30:46;;;;;;;8.50;3.75;;;;;;;;;;7389103;19;20476;-71
2022/10/03 12:33:27;;;;;;;9.43;3.50;;;;;;;;;;7385270;19;20483;-71
2022/10/03 12:36:12;;;;;;;8.05;3.67;;;;;;;;;;7390296;19;20099;-71
2022/10/03 12:38:56;;;;;;;8.80;3.63;;;;;;;;;;7390547;19;19999;-72
2022/10/03 12:41:56;;;;;;;8.55;4.40;;;;;;;;;;7390616;19;20015;-71
2022/10/03 12:44:49;;;;;;;7.95;3.72;;;;;;;;;;7392950;19;20026;-70
2022/10/03 12:47:31;;;;;;;10.27;4.55;;;;;;;;;;7389552;19;19994;-71
2022/10/03 12:50:06;;;;;;;9.20;3.80;;;;;;;;;;7392421;19;20025;-70
2022/10/03 12:52:43;;;;;;;11.65;3.90;;;;;;;;;;7380886;19;20070;-71
2022/10/03 12:55:11;;;;;;;8.45;3.97;;;;;;;;;;7387676;19;20014;-70
2022/10/03 12:57:36;;;;;;;7.13;3.88;;;;;;;;;;7389600;19;20043;-72
2022/10/03 13:00:26;;;;;;;7.93;3.47;;;;;;;;;;7390571;19;20497;-71
2022/10/03 13:03:02;;;;;;;8.15;4.18;;;;;;;;;;7389832;19;20002;-70
2022/10/03 13:06:14;;;;;;;8.63;3.90;;;;;;;;;;7390135;19;20003;-72
2022/10/03 13:08:58;;;;;;;10.80;4.07;;;;;;;;;;7387890;19;20357;-72
2022/10/03 13:11:53;;;;;;;8.18;3.60;;;;;;;;;;7386967;19;20139;-70
2022/10/03 13:14:38;;;;;;;9.95;3.72;;;;;;;;;;7384741;19;20001;-71
2022/10/03 13:17:35;;;;;;;8.48;3.95;;;;;;;;;;7390940;19;20069;-70
2022/10/03 13:20:14;;;;;;;9.10;3.67;;;;;;;;;;7391154;19;20018;-71
2022/10/03 13:22:45;;;;;;;10.32;3.50;;;;;;;;;;7386873;19;19999;-70
2022/10/03 13:25:34;;;;;;;11.23;4.10;;;;;;;;;;7392512;19;20001;-73
2022/10/03 13:28:17;;;;;;;8.55;3.92;;;;;;;;;;7380978;19;20009;-69
2022/10/03 13:30:57;;;;;;;8.00;3.75;;;;;;;;;;7384288;19;20013;-71
2022/10/03 13:33:26;;;;;;;9.27;3.80;;;;;;;;;;7382088;19;20077;-70
2022/10/03 13:35:58;;;;;;;8.88;4.22;;;;;;;;;;7386011;19;20293;-72
2022/10/03 13:38:44;;;;;;;8.35;3.50;;;;;;;;;;7385690;19;20464;-71
2022/10/03 13:41:41;;;;;;;7.70;3.40;;;;;;;;;;7383578;19;20002;-71
2022/10/03 13:44:09;;;;;;;8.00;3.92;;;;;;;;;;7383637;19;20363;-72
2022/10/03 13:46:43;;;;;;;10.57;4.20;;;;;;;;;;7383696;19;20469;-72
2022/10/03 13:49:31;;;;;;;8.07;3.72;;;;;;;;;;7383668;19;20015;-72
2022/10/03 13:52:38;;;;;;;7.97;3.78;;;;;;;;;;7383517;19;20010;-71
2022/10/03 13:55:13;;;;;;;9.90;3.95;;;;;;;;;;7382151;19;20050;-73
2022/10/03 13:57:46;;;;;;;7.10;3.10;;;;;;;;;;7384360;19;20373;-72
2022/10/03 14:00:15;;;;;;;9.45;3.28;;;;;;;;;;7385030;19;20026;-73
2022/10/03 14:03:10;;;;;;;8.63;3.08;;;;;;;;;;7379898;19;20507;-71
2022/10/03 14:05:54;;;;;;;9.07;2.60;;;;;;;;;;7384382;19;20013;-73
2022/10/03 14:08:41;;;;;;;8.55;3.00;;;;;;;;;;7384746;19;20507;-71
2022/10/03 14:11:21;;;;;;;6.25;3.00;;;;;;;;;;7383017;19;20014;-74
2022/10/03 14:14:01;;;;;;;6.80;3.38;;;;;;;;;;7383836;19;20011;-73
2022/10/03 14:16:34;;;;;;;9.82;2.97;;;;;;;;;;7385493;19;20376;-71
2022/10/03 14:19:13;;;;;;;7.38;2.95;;;;;;;;;;7385749;19;20009;-74
2022/10/03 14:21:59;;;;;;;7.18;3.20;;;;;;;;;;7380365;19;20037;-73
2022/10/03 14:24:41;;;;;;;8.48;3.38;;;;;;;;;;7387740;19;20006;-72
2022/10/03 14:27:42;;;;;;;9.95;3.50;;;;;;;;;;7382848;19;20006;-73
2022/10/03 14:30:12;;;;;;;7.65;3.22;;;;;;;;;;7383375;19;20007;-71
2022/10/03 14:33:13;;;;;;;10.18;3.45;;;;;;;;;;7380438;19;20009;-72
2022/10/03 14:36:01;;;;;;;8.20;3.90;;;;;;;;;;7385240;19;21221;-70
2022/10/03 14:42:05;;;;;;;7.25;3.38;;;;;;;;;;7379977;19;20017;-72
2022/10/03 14:44:39;;;;;;;10.02;3.25;;;;;;;;;;7383094;19;20050;-70
2022/10/03 14:47:10;;;;;;;6.57;3.00;;;;;;;;;;7384393;19;20077;-71
2022/10/03 14:49:46;;;;;;;9.40;3.05;;;;;;;;;;7383500;19;20091;-71
2022/10/03 14:52:41;;;;;;;8.90;3.38;;;;;;;;;;7384754;19;20464;-71
2022/10/03 14:55:13;;;;;;;9.10;2.92;;;;;;;;;;7386099;19;20002;-71
2022/10/03 14:57:53;;;;;;;13.63;3.20;;;;;;;;;;7382566;19;20017;-73
2022/10/03 15:00:23;;;;;;;6.72;2.80;;;;;;;;;;7385606;19;20006;-74
2022/10/03 15:02:49;;;;;;;10.27;3.28;;;;;;;;;;7380427;19;19999;-74
2022/10/03 15:05:40;;;;;;;7.32;2.65;;;;;;;;;;7385015;19;20002;-73
2022/10/03 15:08:14;;;;;;;5.75;2.60;;;;;;;;;;7382639;19;20355;-71
2022/10/03 15:10:40;;;;;;;5.68;2.30;;;;;;;;;;7383117;19;20370;-72
2022/10/03 15:13:10;;;;;;;10.70;2.97;;;;;;;;;;7382470;19;20027;-72
2022/10/03 15:15:38;;;;;;;5.55;2.85;;;;;;;;;;7379611;19;20086;-73
2022/10/03 15:18:06;;;;;;;8.07;2.97;;;;;;;;;;7384390;19;20013;-72
2022/10/03 15:20:42;;;;;;;7.50;2.92;;;;;;;;;;7381402;19;20028;-71
2022/10/03 15:23:24;;;;;;;8.88;3.05;;;;;;;;;;7384059;19;20012;-71
2022/10/03 15:25:52;;;;;;;7.50;3.03;;;;;;;;;;7379541;19;20105;-70
2022/10/03 15:28:29;;;;;;;5.88;2.70;;;;;;;;;;7384384;19;20013;-71
2022/10/03 15:30:56;;;;;;;7.25;3.10;;;;;;;;;;7379192;19;20413;-72
2022/10/03 15:33:32;;;;;;;6.65;3.10;;;;;;;;;;7382056;19;20028;-72
2022/10/03 15:36:21;;;;;;;7.68;3.20;;;;;;;;;;7384389;19;20485;-73
2022/10/03 15:39:16;;;;;;;6.45;3.00;;;;;;;;;;7381280;19;20598;-73
2022/10/03 15:41:54;;;;;;;9.75;3.22;;;;;;;;;;7377845;19;20013;-71
2022/10/03 15:44:31;;;;;;;17.05;9.65;;;;;;;;;;7383713;19;20357;-71
2022/10/03 15:47:03;;;;;;;25.30;13.80;;;;;;;;;;7381681;19;20006;-72
2022/10/03 15:49:38;;;;;;;10.88;4.20;;;;;;;;;;7385031;19;20067;-72
2022/10/03 15:52:22;;;;;;;9.18;3.67;;;;;;;;;;7382942;19;20008;-72
2022/10/03 15:54:58;;;;;;;7.05;3.47;;;;;;;;;;7383640;19;20007;-72
2022/10/03 15:57:29;;;;;;;6.80;3.22;;;;;;;;;;7383775;19;20074;-72
2022/10/03 15:59:57;;;;;;;7.65;3.42;;;;;;;;;;7384297;19;19994;-72
2022/10/03 16:02:33;;;;;;;11.50;3.40;;;;;;;;;;7385249;19;20252;-72
2022/10/03 16:05:01;;;;;;;7.25;3.30;;;;;;;;;;7385935;19;19998;-73
2022/10/03 16:07:40;;;;;;;8.15;3.85;;;;;;;;;;7385345;19;19998;-73
2022/10/03 16:10:23;;;;;;;6.60;3.38;;;;;;;;;;7383229;19;20006;-74
2022/10/03 16:13:24;;;;;;;11.05;4.05;;;;;;;;;;7381923;19;20488;-74
2022/10/03 16:16:11;;;;;;;8.85;3.53;;;;;;;;;;7382437;19;20061;-74
2022/10/03 16:18:47;;;;;;;8.52;3.53;;;;;;;;;;7385094;19;20010;-75
2022/10/03 16:21:24;;;;;;;6.50;3.40;;;;;;;;;;7372596;19;20006;-73
2022/10/03 16:23:54;;;;;;;6.30;3.25;;;;;;;;;;7381186;19;20011;-74
2022/10/03 16:26:27;;;;;;;8.53;3.97;;;;;;;;;;7378635;19;20025;-74
2022/10/03 16:29:10;;;;;;;9.35;3.70;;;;;;;;;;7383338;19;20073;-73
2022/10/03 16:31:42;;;;;;;10.00;3.97;;;;;;;;;;7383557;19;20465;-71